Time;durP1;ratioP1;P1;durP2;ratioP2;P2;SDS_P1;SDS_P2;PMS_P1;PMS_P2;Temp;Humidity;BMP_temperature;BMP_pressure;BME280_temperature;BME280_humidity;BME280_pressure;Samples;Min_cycle;Max_cycle;Signal;HPM_P1;HPM_P2
2024/01/11 00:00:24;;;;;;;53.63;23.05;;;-6.00;99.90;;;;;;5093977;28;20020;-39
2024/01/11 00:02:50;;;;;;;56.08;23.70;;;-6.00;99.90;;;;;;5095559;27;20539;-51
2024/01/11 00:05:15;;;;;;;53.40;21.95;;;-6.00;99.90;;;;;;5093590;28;20042;-51
2024/01/11 00:07:41;;;;;;;47.40;20.30;;;-6.10;99.90;;;;;;5092689;28;20032;-40
2024/01/11 00:10:08;;;;;;;56.83;21.65;;;-6.10;99.90;;;;;;5092933;28;20016;-48
2024/01/11 00:12:34;;;;;;;61.97;25.20;;;-6.20;99.90;;;;;;5090943;28;20024;-37
2024/01/11 00:14:59;;;;;;;56.10;23.67;;;-6.10;99.90;;;;;;5091954;28;20043;-38
2024/01/11 00:17:25;;;;;;;58.08;23.05;;;-6.20;99.90;;;;;;5091839;28;20032;-38
2024/01/11 00:19:50;;;;;;;50.47;21.45;;;-6.10;99.90;;;;;;5090598;28;20020;-38
2024/01/11 00:22:16;;;;;;;66.22;24.17;;;-6.20;99.90;;;;;;5091982;28;20028;-38
2024/01/11 00:24:41;;;;;;;59.30;22.70;;;-6.20;99.90;;;;;;5092055;28;20381;-38
2024/01/11 00:27:07;;;;;;;52.13;20.27;;;-6.20;99.90;;;;;;5091587;28;20020;-38
2024/01/11 00:29:33;;;;;;;49.55;20.73;;;-6.30;99.90;;;;;;5095880;28;20024;-37
2024/01/11 00:31:59;;;;;;;52.42;18.65;;;-6.30;99.90;;;;;;5092940;28;20024;-38
2024/01/11 00:34:24;;;;;;;50.15;18.85;;;-6.30;99.90;;;;;;5091605;28;20020;-39
2024/01/11 00:36:50;;;;;;;49.28;21.02;;;-6.30;99.90;;;;;;5093233;28;20043;-38
2024/01/11 00:39:15;;;;;;;53.65;20.75;;;-6.20;99.90;;;;;;5091175;28;20169;-38
2024/01/11 00:41:41;;;;;;;54.22;19.73;;;-6.20;99.90;;;;;;5094227;28;20023;-38
2024/01/11 00:44:07;;;;;;;49.40;18.02;;;-6.20;99.90;;;;;;5091679;28;20035;-38
2024/01/11 00:46:34;;;;;;;48.47;19.52;;;-6.20;99.90;;;;;;5094146;28;20060;-38
2024/01/11 00:48:59;;;;;;;46.35;18.10;;;-6.30;99.90;;;;;;5093030;28;20012;-38
2024/01/11 00:51:25;;;;;;;49.03;18.85;;;-6.20;99.90;;;;;;5093123;28;20099;-38
2024/01/11 00:53:51;;;;;;;51.22;19.67;;;-6.20;99.90;;;;;;5090205;28;20684;-38
2024/01/11 00:56:18;;;;;;;52.25;19.65;;;-6.30;99.90;;;;;;5091745;28;20235;-40
2024/01/11 00:58:43;;;;;;;51.47;20.70;;;-6.30;99.90;;;;;;5093440;28;20035;-40
2024/01/11 01:01:09;;;;;;;48.55;18.83;;;-6.20;99.90;;;;;;5093200;28;20046;-38
2024/01/11 01:03:35;;;;;;;52.92;23.48;;;-6.20;99.90;;;;;;5093945;28;20381;-39
2024/01/11 01:06:01;;;;;;;52.95;18.23;;;-6.20;99.90;;;;;;5092590;28;20477;-39
2024/01/11 01:08:27;;;;;;;46.88;20.38;;;-6.30;99.90;;;;;;5093212;28;20427;-39
2024/01/11 01:10:52;;;;;;;53.13;19.33;;;-6.20;99.90;;;;;;5093216;28;20030;-39
2024/01/11 01:13:18;;;;;;;53.33;21.35;;;-6.30;99.90;;;;;;5092975;28;20073;-39
2024/01/11 01:15:43;;;;;;;46.97;18.42;;;-6.20;99.90;;;;;;5093916;28;20102;-39
2024/01/11 01:18:09;;;;;;;55.38;20.88;;;-6.30;99.90;;;;;;5091492;28;20147;-39
2024/01/11 01:20:34;;;;;;;47.20;18.38;;;-6.30;99.90;;;;;;5092285;28;20127;-39
2024/01/11 01:23:00;;;;;;;46.72;18.45;;;-6.40;99.90;;;;;;5093007;28;20032;-39
2024/01/11 01:25:26;;;;;;;47.67;19.23;;;-6.40;99.90;;;;;;5093333;28;20039;-39
2024/01/11 01:27:51;;;;;;;49.47;18.05;;;-6.40;99.90;;;;;;5101017;28;20035;-39
2024/01/11 01:30:17;;;;;;;54.97;19.23;;;-6.40;99.90;;;;;;5092813;28;20413;-39
2024/01/11 01:32:42;;;;;;;39.20;18.05;;;-6.40;99.90;;;;;;5094560;28;20081;-39
2024/01/11 01:35:08;;;;;;;52.92;19.65;;;-6.50;99.90;;;;;;5093208;28;20027;-39
2024/01/11 01:37:34;;;;;;;58.33;22.48;;;-6.40;99.90;;;;;;5094541;28;20028;-39
2024/01/11 01:39:59;;;;;;;48.33;19.05;;;-6.40;99.90;;;;;;5092939;28;20020;-39
2024/01/11 01:42:25;;;;;;;52.45;19.83;;;-6.30;99.90;;;;;;5093431;28;20508;-39
2024/01/11 01:44:50;;;;;;;51.55;18.83;;;-6.30;99.90;;;;;;5094150;28;20378;-50
2024/01/11 01:47:17;;;;;;;55.55;21.67;;;-6.20;99.90;;;;;;5091591;28;20227;-53
2024/01/11 01:49:44;;;;;;;53.92;21.25;;;-6.30;99.90;;;;;;5093739;28;20043;-50
2024/01/11 01:52:14;;;;;;;54.33;20.85;;;-6.40;99.90;;;;;;5092913;28;20031;-48
2024/01/11 01:54:39;;;;;;;56.40;21.48;;;-6.40;99.90;;;;;;5092962;28;20051;-49
2024/01/11 01:57:06;;;;;;;56.97;21.38;;;-6.30;99.90;;;;;;5092790;28;20434;-50
2024/01/11 01:59:32;;;;;;;52.10;21.90;;;-6.50;99.90;;;;;;5093938;28;20028;-51
2024/01/11 02:01:57;;;;;;;47.88;20.60;;;-6.50;99.90;;;;;;5093219;28;20081;-50
2024/01/11 02:04:23;;;;;;;51.78;19.55;;;-6.50;99.90;;;;;;5093501;28;20079;-53
2024/01/11 02:06:51;;;;;;;66.00;25.50;;;-6.60;99.90;;;;;;5094458;28;20102;-54
2024/01/11 02:09:17;;;;;;;53.10;21.02;;;-6.60;99.90;;;;;;5092773;28;20107;-49
2024/01/11 02:11:44;;;;;;;63.63;22.35;;;-6.60;99.90;;;;;;5094620;28;20131;-51
2024/01/11 02:14:10;;;;;;;52.33;22.25;;;-6.70;99.90;;;;;;5093025;28;20385;-46
2024/01/11 02:16:37;;;;;;;54.78;21.08;;;-6.70;99.90;;;;;;5095157;28;20028;-50
2024/01/11 02:19:06;;;;;;;49.67;21.00;;;-6.80;99.90;;;;;;5086525;28;20059;-50
2024/01/11 02:21:33;;;;;;;53.45;22.17;;;-6.90;99.90;;;;;;5094411;28;20274;-49
2024/01/11 02:24:06;;;;;;;50.65;20.13;;;-7.00;99.90;;;;;;5093308;28;20073;-50
2024/01/11 02:26:32;;;;;;;48.42;21.35;;;-7.00;99.90;;;;;;5094413;28;20542;-51
2024/01/11 02:28:58;;;;;;;64.95;22.25;;;-7.00;99.90;;;;;;5093458;28;20020;-50
2024/01/11 02:31:25;;;;;;;52.22;23.70;;;-7.00;99.90;;;;;;5093309;28;20354;-50
2024/01/11 02:33:52;;;;;;;58.08;21.25;;;-7.00;99.90;;;;;;5095124;28;20095;-50
2024/01/11 02:36:20;;;;;;;53.58;20.88;;;-7.00;99.90;;;;;;5092103;28;20051;-49
2024/01/11 02:38:45;;;;;;;54.13;20.67;;;-6.90;99.90;;;;;;5094686;28;20031;-49
2024/01/11 02:41:14;;;;;;;58.67;20.85;;;-6.90;99.90;;;;;;5093338;28;20103;-50
2024/01/11 02:43:39;;;;;;;54.53;21.15;;;-6.90;99.90;;;;;;5095321;28;20054;-51
2024/01/11 02:46:05;;;;;;;59.50;23.30;;;-6.80;99.90;;;;;;5093218;28;20131;-48
2024/01/11 02:48:31;;;;;;;60.10;20.10;;;-6.80;99.90;;;;;;5094268;28;20388;-51
2024/01/11 02:50:57;;;;;;;62.42;20.98;;;-6.90;99.90;;;;;;5093972;28;20028;-53
2024/01/11 02:53:23;;;;;;;49.60;20.08;;;-6.90;99.90;;;;;;5092105;28;20046;-50
2024/01/11 02:55:50;;;;;;;51.72;19.77;;;-6.90;99.90;;;;;;5095554;28;20036;-51
2024/01/11 02:58:15;;;;;;;52.95;20.40;;;-6.90;99.90;;;;;;5091355;28;20024;-50
2024/01/11 03:00:41;;;;;;;53.45;21.05;;;-6.90;99.90;;;;;;5093641;28;20032;-50
2024/01/11 03:03:07;;;;;;;54.30;19.95;;;-6.90;99.90;;;;;;5093337;28;20030;-51
2024/01/11 03:05:32;;;;;;;52.45;19.83;;;-6.90;99.90;;;;;;5094277;28;20035;-48
2024/01/11 03:07:58;;;;;;;50.60;19.75;;;-6.90;99.90;;;;;;5094776;28;20102;-48
2024/01/11 03:10:23;;;;;;;47.17;18.50;;;-6.90;99.90;;;;;;5092207;28;20031;-48
2024/01/11 03:12:49;;;;;;;54.08;20.38;;;-6.90;99.90;;;;;;5095367;28;20088;-47
2024/01/11 03:15:15;;;;;;;53.25;20.35;;;-7.00;99.90;;;;;;5093162;28;20020;-49
2024/01/11 03:17:40;;;;;;;53.40;20.83;;;-7.00;99.90;;;;;;5095989;28;20051;-51
2024/01/11 03:20:07;;;;;;;57.90;21.05;;;-7.00;99.90;;;;;;5088695;28;20044;-47
2024/01/11 03:22:33;;;;;;;54.47;21.02;;;-7.00;99.90;;;;;;5092304;28;20028;-49
2024/01/11 03:24:58;;;;;;;55.40;20.75;;;-7.00;99.90;;;;;;5094509;28;20472;-49
2024/01/11 03:27:24;;;;;;;56.33;20.98;;;-7.00;99.90;;;;;;5093446;28;20435;-51
2024/01/11 03:29:49;;;;;;;50.30;20.35;;;-6.90;99.90;;;;;;5095668;28;20019;-51
2024/01/11 03:32:15;;;;;;;55.00;20.98;;;-6.90;99.90;;;;;;5094067;28;20024;-48
2024/01/11 03:34:41;;;;;;;55.30;21.17;;;-6.90;99.90;;;;;;5096105;28;20385;-51
2024/01/11 03:37:06;;;;;;;61.22;22.40;;;-6.90;99.90;;;;;;5093521;28;20066;-49
2024/01/11 03:39:33;;;;;;;50.03;20.75;;;-6.80;99.90;;;;;;5094299;28;20397;-48
2024/01/11 03:41:58;;;;;;;53.20;20.40;;;-6.90;99.90;;;;;;5094932;28;20045;-47
2024/01/11 03:44:24;;;;;;;51.88;20.13;;;-6.80;99.90;;;;;;5094011;28;20020;-47
2024/01/11 03:46:49;;;;;;;60.28;20.60;;;-6.80;99.90;;;;;;5096186;28;20487;-48
2024/01/11 03:49:15;;;;;;;56.03;20.73;;;-6.80;99.90;;;;;;5092156;28;20024;-50
2024/01/11 03:51:40;;;;;;;50.40;19.85;;;-6.90;99.90;;;;;;5096470;28;20030;-49
2024/01/11 03:54:06;;;;;;;56.70;20.83;;;-6.90;99.90;;;;;;5094276;28;20024;-50
2024/01/11 03:56:31;;;;;;;56.67;20.55;;;-6.90;99.90;;;;;;5094993;28;20020;-50
2024/01/11 03:58:57;;;;;;;46.78;18.92;;;-7.00;99.90;;;;;;5095351;28;20048;-51
2024/01/11 04:01:22;;;;;;;54.38;20.20;;;-6.90;99.90;;;;;;5094425;28;20034;-48
2024/01/11 04:03:49;;;;;;;47.83;18.42;;;-7.00;99.90;;;;;;5096686;28;20077;-47
2024/01/11 04:06:24;;;;;;;56.65;21.95;;;-6.90;99.90;;;;;;5093703;28;20046;-51
2024/01/11 04:08:50;;;;;;;55.95;18.90;;;-6.90;99.90;;;;;;5090626;28;20020;-48
2024/01/11 04:11:16;;;;;;;55.65;20.58;;;-6.90;99.90;;;;;;5092739;28;20031;-49
2024/01/11 04:13:42;;;;;;;55.17;19.27;;;-6.90;99.90;;;;;;5098383;28;20020;-49
2024/01/11 04:16:08;;;;;;;59.42;20.17;;;-6.90;99.90;;;;;;5098520;28;20035;-49
2024/01/11 04:18:34;;;;;;;50.55;19.55;;;-6.90;99.90;;;;;;5098521;28;20043;-50
2024/01/11 04:20:59;;;;;;;52.75;20.15;;;-6.90;99.90;;;;;;5094231;28;20044;-50
2024/01/11 04:23:25;;;;;;;49.97;20.75;;;-6.90;99.90;;;;;;5094367;28;20081;-52
2024/01/11 04:25:53;;;;;;;54.10;19.80;;;-6.90;99.90;;;;;;5095078;28;20024;-52
2024/01/11 04:28:19;;;;;;;51.00;19.73;;;-7.00;99.90;;;;;;5094379;28;20022;-51
2024/01/11 04:30:44;;;;;;;45.60;18.92;;;-7.00;99.90;;;;;;5098906;28;20334;-53
2024/01/11 04:33:10;;;;;;;48.00;20.30;;;-7.00;99.90;;;;;;5098368;28;20077;-50
2024/01/11 04:35:36;;;;;;;55.97;20.88;;;-7.00;99.90;;;;;;5098972;28;20101;-52
2024/01/11 04:38:02;;;;;;;56.70;20.70;;;-6.90;99.90;;;;;;5098660;28;20437;-50
2024/01/11 04:40:27;;;;;;;53.50;20.73;;;-6.90;99.90;;;;;;5098225;28;20028;-49
2024/01/11 04:42:53;;;;;;;52.80;20.45;;;-6.90;99.90;;;;;;5100618;28;20032;-50
2024/01/11 04:45:18;;;;;;;54.08;20.95;;;-6.90;99.90;;;;;;5093255;28;20031;-49
2024/01/11 04:47:44;;;;;;;54.42;19.90;;;-7.00;99.90;;;;;;5100845;28;20027;-50
2024/01/11 04:50:10;;;;;;;61.00;22.23;;;-7.00;99.90;;;;;;5097871;28;20016;-48
2024/01/11 04:52:35;;;;;;;55.38;19.60;;;-7.00;99.90;;;;;;5099500;28;20331;-50
2024/01/11 04:55:01;;;;;;;43.60;18.55;;;-7.00;99.90;;;;;;5099194;28;20027;-50
2024/01/11 04:57:27;;;;;;;47.25;17.63;;;-7.10;99.90;;;;;;5097020;28;20111;-52
2024/01/11 04:59:53;;;;;;;49.50;20.27;;;-7.10;99.90;;;;;;5100221;28;20046;-50
2024/01/11 05:02:20;;;;;;;53.40;19.92;;;-7.10;99.90;;;;;;5098388;28;20097;-50
2024/01/11 05:04:46;;;;;;;56.78;21.42;;;-7.10;99.90;;;;;;5101134;28;20114;-48
2024/01/11 05:07:12;;;;;;;57.33;20.00;;;-7.00;99.90;;;;;;5097850;28;20122;-52
2024/01/11 05:09:38;;;;;;;57.70;20.73;;;-7.00;99.90;;;;;;5097504;28;20020;-52
2024/01/11 05:12:04;;;;;;;62.67;20.08;;;-7.00;99.90;;;;;;5098168;28;20020;-52
2024/01/11 05:14:30;;;;;;;54.63;20.13;;;-7.00;99.90;;;;;;5098881;28;20047;-51
2024/01/11 05:16:55;;;;;;;58.78;19.35;;;-7.00;99.90;;;;;;5100702;28;20055;-52
2024/01/11 05:19:21;;;;;;;49.83;19.48;;;-7.00;99.90;;;;;;5097701;28;20074;-51
2024/01/11 05:21:47;;;;;;;53.70;21.77;;;-7.00;99.90;;;;;;5101140;28;20057;-49
2024/01/11 05:24:12;;;;;;;57.13;21.55;;;-6.90;99.90;;;;;;5098073;28;20106;-48
2024/01/11 05:26:38;;;;;;;48.00;20.10;;;-6.90;99.90;;;;;;5099281;28;20054;-49
2024/01/11 05:29:04;;;;;;;65.50;22.70;;;-6.90;99.90;;;;;;5098239;28;20362;-49
2024/01/11 05:31:30;;;;;;;62.35;23.67;;;-7.00;99.90;;;;;;5099504;28;20544;-52
2024/01/11 05:33:55;;;;;;;57.38;19.67;;;-6.90;99.90;;;;;;5100925;28;20098;-50
2024/01/11 05:36:21;;;;;;;54.40;21.05;;;-7.00;99.90;;;;;;5097982;28;20059;-50
2024/01/11 05:38:47;;;;;;;61.10;21.77;;;-7.00;99.90;;;;;;5101003;28;20040;-52
2024/01/11 05:41:13;;;;;;;56.25;19.95;;;-7.00;99.90;;;;;;5097304;28;20476;-50
2024/01/11 05:43:40;;;;;;;65.57;21.73;;;-7.00;99.90;;;;;;5099009;28;20456;-52
2024/01/11 05:46:06;;;;;;;61.00;22.30;;;-7.00;99.90;;;;;;5099556;28;20537;-49
2024/01/11 05:48:32;;;;;;;60.58;21.13;;;-7.00;99.90;;;;;;5097889;28;20107;-51
2024/01/11 05:50:59;;;;;;;59.67;21.75;;;-7.00;99.90;;;;;;5100386;28;20044;-49
2024/01/11 05:53:27;;;;;;;59.30;20.77;;;-6.90;99.90;;;;;;5098678;28;20051;-52
2024/01/11 05:55:52;;;;;;;57.78;22.42;;;-7.00;99.90;;;;;;5101454;28;20073;-51
2024/01/11 05:58:18;;;;;;;55.00;20.95;;;-6.90;99.90;;;;;;5094009;28;20477;-50
2024/01/11 06:00:44;;;;;;;54.60;19.98;;;-7.00;99.90;;;;;;5100615;28;20060;-52
2024/01/11 06:03:11;;;;;;;55.08;19.33;;;-7.00;99.90;;;;;;5095414;28;20659;-49
2024/01/11 06:05:37;;;;;;;60.92;21.95;;;-7.00;99.90;;;;;;5099778;28;20427;-52
2024/01/11 06:08:03;;;;;;;47.38;20.05;;;-7.10;99.90;;;;;;5100281;28;20053;-51
2024/01/11 06:10:30;;;;;;;55.55;21.38;;;-7.10;99.90;;;;;;5098717;28;20066;-52
2024/01/11 06:12:56;;;;;;;58.15;23.77;;;-7.10;99.90;;;;;;5101186;28;20024;-50
2024/01/11 06:15:22;;;;;;;47.22;18.52;;;-7.00;99.90;;;;;;5097941;28;20068;-48
2024/01/11 06:17:47;;;;;;;54.67;19.85;;;-7.00;99.90;;;;;;5105182;28;20024;-53
2024/01/11 06:20:13;;;;;;;52.88;20.70;;;-7.00;99.90;;;;;;5098394;28;20016;-51
2024/01/11 06:22:38;;;;;;;63.22;21.70;;;-7.00;99.90;;;;;;5100449;28;20381;-49
2024/01/11 06:25:04;;;;;;;56.92;19.90;;;-7.00;99.90;;;;;;5100223;28;20022;-50
2024/01/11 06:27:30;;;;;;;59.75;22.35;;;-7.00;99.90;;;;;;5098688;28;20039;-49
2024/01/11 06:29:55;;;;;;;50.35;18.77;;;-7.10;99.90;;;;;;5100022;28;20024;-50
2024/01/11 06:32:21;;;;;;;56.15;20.30;;;-7.10;99.90;;;;;;5098205;28;20012;-50
2024/01/11 06:34:47;;;;;;;49.65;20.38;;;-7.00;99.90;;;;;;5101880;28;20028;-52
2024/01/11 06:37:13;;;;;;;57.95;21.45;;;-7.00;99.90;;;;;;5098993;28;20093;-50
2024/01/11 06:39:38;;;;;;;66.18;24.02;;;-7.00;99.90;;;;;;5099399;28;20395;-53
2024/01/11 06:42:04;;;;;;;59.33;21.98;;;-7.00;99.90;;;;;;5100495;28;20276;-50
2024/01/11 06:44:30;;;;;;;54.97;22.38;;;-7.00;99.90;;;;;;5098956;28;20050;-50
2024/01/11 06:46:56;;;;;;;61.42;22.67;;;-7.00;99.90;;;;;;5093547;28;20102;-51
2024/01/11 06:49:22;;;;;;;62.85;23.70;;;-7.00;99.90;;;;;;5092076;28;20026;-52
2024/01/11 06:51:47;;;;;;;58.15;23.38;;;-7.10;99.90;;;;;;5101163;28;20024;-52
2024/01/11 06:54:13;;;;;;;59.65;24.05;;;-7.10;99.90;;;;;;5099541;28;20027;-48
2024/01/11 06:56:38;;;;;;;55.72;20.83;;;-7.10;99.90;;;;;;5100305;28;20024;-51
2024/01/11 06:59:04;;;;;;;60.88;22.27;;;-7.00;99.90;;;;;;5100364;28;20028;-49
2024/01/11 07:01:29;;;;;;;58.30;20.85;;;-7.10;99.90;;;;;;5099225;28;20024;-52
2024/01/11 07:03:55;;;;;;;57.28;20.98;;;-7.10;99.90;;;;;;5102173;28;20023;-50
2024/01/11 07:06:20;;;;;;;56.38;20.80;;;-7.10;99.90;;;;;;5098428;28;20103;-50
2024/01/11 07:08:46;;;;;;;56.08;20.50;;;-7.10;99.90;;;;;;5100938;28;20099;-51
2024/01/11 07:11:11;;;;;;;54.90;19.48;;;-7.00;99.90;;;;;;5100205;28;20055;-51
2024/01/11 07:13:37;;;;;;;60.90;21.27;;;-7.00;99.90;;;;;;5094908;28;20047;-51
2024/01/11 07:16:03;;;;;;;63.85;20.95;;;-7.00;99.90;;;;;;5091375;28;20020;-51
2024/01/11 07:18:28;;;;;;;58.03;21.20;;;-7.00;99.90;;;;;;5092100;28;20070;-48
2024/01/11 07:20:57;;;;;;;60.78;21.70;;;-7.00;99.90;;;;;;5092307;28;20482;-49
2024/01/11 07:23:22;;;;;;;55.63;21.75;;;-7.00;99.90;;;;;;5091225;28;20069;-50
2024/01/11 07:25:48;;;;;;;58.85;19.38;;;-7.10;99.90;;;;;;5091680;28;20115;-50
2024/01/11 07:28:14;;;;;;;57.25;22.15;;;-7.10;99.90;;;;;;5089375;28;20370;-49
2024/01/11 07:30:39;;;;;;;53.42;20.20;;;-7.10;99.90;;;;;;5098787;28;20023;-53
2024/01/11 07:33:05;;;;;;;55.35;20.27;;;-7.00;99.90;;;;;;5100830;28;20016;-48
2024/01/11 07:35:31;;;;;;;53.97;19.52;;;-7.00;99.90;;;;;;5092064;28;20036;-52
2024/01/11 07:37:57;;;;;;;56.90;21.80;;;-7.00;99.90;;;;;;5096850;28;20404;-51
2024/01/11 07:40:23;;;;;;;46.65;19.98;;;-7.00;99.90;;;;;;5091817;28;20028;-52
2024/01/11 07:42:49;;;;;;;58.22;22.27;;;-6.90;99.90;;;;;;5089703;28;20500;-52
2024/01/11 07:45:15;;;;;;;58.53;21.33;;;-6.90;99.90;;;;;;5098086;28;20028;-50
2024/01/11 07:47:41;;;;;;;56.70;20.15;;;-6.90;99.90;;;;;;5100833;28;20358;-53
2024/01/11 07:50:09;;;;;;;56.90;21.90;;;-6.90;99.90;;;;;;5104894;28;20136;-48
2024/01/11 07:52:36;;;;;;;53.63;20.08;;;-6.90;99.90;;;;;;5106024;28;20074;-48
2024/01/11 07:55:07;;;;;;;58.15;22.33;;;-6.90;99.90;;;;;;5105026;28;20651;-51
2024/01/11 07:57:34;;;;;;;55.05;19.77;;;-6.90;99.90;;;;;;5104659;28;20031;-49
2024/01/11 07:59:59;;;;;;;62.20;22.13;;;-6.80;99.90;;;;;;5109408;28;20019;-50
2024/01/11 08:02:25;;;;;;;53.25;20.33;;;-6.80;99.90;;;;;;5102692;28;20389;-52
2024/01/11 08:04:52;;;;;;;55.95;19.75;;;-6.80;99.90;;;;;;5108815;28;20457;-40
2024/01/11 08:07:18;;;;;;;56.05;20.17;;;-6.70;99.90;;;;;;5103985;28;20066;-52
2024/01/11 08:09:47;;;;;;;52.33;20.30;;;-6.70;99.90;;;;;;5105261;28;20050;-50
2024/01/11 08:12:13;;;;;;;53.80;21.35;;;-6.60;99.90;;;;;;5094797;28;20020;-39
2024/01/11 08:14:39;;;;;;;53.13;22.10;;;-6.60;99.90;;;;;;5093773;28;20496;-37
2024/01/11 08:17:04;;;;;;;50.90;19.23;;;-6.50;99.90;;;;;;5097248;28;20028;-38
2024/01/11 08:19:32;;;;;;;50.17;19.67;;;-6.50;99.90;;;;;;5103604;28;20024;-39
2024/01/11 08:21:58;;;;;;;54.80;21.23;;;-6.50;99.90;;;;;;5102448;28;20024;-37
2024/01/11 08:24:24;;;;;;;52.85;19.45;;;-6.50;99.90;;;;;;5101814;28;20032;-39
2024/01/11 08:26:51;;;;;;;53.67;21.45;;;-6.50;99.90;;;;;;5093328;28;20481;-40
2024/01/11 08:29:18;;;;;;;58.47;20.85;;;-6.50;99.90;;;;;;5095624;28;20116;-39
2024/01/11 08:31:44;;;;;;;52.22;19.17;;;-6.50;99.90;;;;;;5095724;28;20030;-54
2024/01/11 08:34:10;;;;;;;57.92;21.15;;;-6.50;99.90;;;;;;5094708;28;20020;-39
2024/01/11 08:36:38;;;;;;;55.70;19.23;;;-6.50;99.90;;;;;;5097409;28;20020;-39
2024/01/11 08:39:08;;;;;;;52.88;19.80;;;-6.50;99.90;;;;;;5106663;28;20035;-53
2024/01/11 08:41:37;;;;;;;55.35;22.75;;;-6.40;99.90;;;;;;5101251;28;20050;-39
2024/01/11 08:44:05;;;;;;;48.03;19.42;;;-6.50;99.90;;;;;;5095104;28;20028;-49
2024/01/11 08:46:33;;;;;;;45.90;18.50;;;-6.40;99.90;;;;;;5092427;28;20032;-50
2024/01/11 08:48:59;;;;;;;45.85;18.70;;;-6.40;99.90;;;;;;5094451;28;20065;-50
2024/01/11 08:51:25;;;;;;;53.45;20.90;;;-6.30;99.90;;;;;;5092491;28;20020;-50
2024/01/11 08:53:52;;;;;;;47.08;18.52;;;-6.30;99.90;;;;;;5094729;28;20020;-49
2024/01/11 08:56:18;;;;;;;49.88;19.77;;;-6.20;99.90;;;;;;5093790;28;20023;-49
2024/01/11 08:58:44;;;;;;;51.88;19.88;;;-6.10;99.90;;;;;;5094599;28;20028;-51
2024/01/11 09:01:10;;;;;;;42.67;18.13;;;-6.00;99.90;;;;;;5094862;28;20032;-53
2024/01/11 09:03:35;;;;;;;51.38;19.75;;;-6.00;99.90;;;;;;5104819;28;20103;-53
2024/01/11 09:06:04;;;;;;;42.65;17.98;;;-5.90;99.90;;;;;;5106626;28;20023;-51
2024/01/11 09:08:30;;;;;;;46.53;19.08;;;-6.00;99.90;;;;;;5103464;28;20052;-50
2024/01/11 09:10:58;;;;;;;46.83;18.38;;;-5.90;99.90;;;;;;5106621;28;20501;-52
2024/01/11 09:13:23;;;;;;;44.67;16.65;;;-5.90;99.90;;;;;;5103729;28;20219;-52
2024/01/11 09:15:49;;;;;;;51.35;19.65;;;-5.80;99.90;;;;;;5098837;28;20024;-49
2024/01/11 09:18:15;;;;;;;47.45;18.17;;;-5.80;99.90;;;;;;5105080;28;20020;-52
2024/01/11 09:20:41;;;;;;;49.33;18.33;;;-5.60;99.90;;;;;;5104799;28;20065;-53
2024/01/11 09:23:07;;;;;;;46.58;18.75;;;-5.40;99.90;;;;;;5106630;28;20413;-55
2024/01/11 09:25:33;;;;;;;46.10;18.63;;;-5.30;99.90;;;;;;5102500;28;20066;-52
2024/01/11 09:27:59;;;;;;;43.22;16.55;;;-5.10;99.90;;;;;;5104745;28;20023;-47
2024/01/11 09:30:25;;;;;;;40.55;16.77;;;-4.90;99.90;;;;;;5103694;28;20047;-51
2024/01/11 09:32:51;;;;;;;42.38;17.77;;;-4.80;99.90;;;;;;5105114;28;20046;-48
2024/01/11 09:35:16;;;;;;;44.63;18.55;;;-4.80;99.90;;;;;;5104054;28;20537;-50
2024/01/11 09:37:43;;;;;;;42.20;18.17;;;-4.70;99.90;;;;;;5105043;28;20030;-48
2024/01/11 09:40:10;;;;;;;42.80;17.65;;;-4.70;99.90;;;;;;5105953;28;20478;-50
2024/01/11 09:42:39;;;;;;;41.45;18.73;;;-4.60;99.90;;;;;;5104249;28;20020;-49
2024/01/11 09:45:12;;;;;;;43.20;18.13;;;-4.50;99.90;;;;;;5105976;28;20020;-49
2024/01/11 09:47:39;;;;;;;45.70;18.77;;;-4.40;99.90;;;;;;5101495;28;20479;-49
2024/01/11 09:50:06;;;;;;;40.78;17.73;;;-4.40;99.90;;;;;;5106159;28;20012;-52
2024/01/11 09:52:32;;;;;;;47.72;18.77;;;-4.40;99.90;;;;;;5104234;28;20028;-50
2024/01/11 09:55:01;;;;;;;49.25;19.52;;;-4.40;99.90;;;;;;5105154;28;20020;-49
2024/01/11 09:57:29;;;;;;;45.85;19.40;;;-4.40;99.90;;;;;;5104207;28;20069;-52
2024/01/11 09:59:57;;;;;;;45.40;19.25;;;-4.40;99.90;;;;;;5106338;28;20015;-49
2024/01/11 10:02:26;;;;;;;47.20;20.85;;;-4.30;99.90;;;;;;5104700;28;20029;-51
2024/01/11 10:04:52;;;;;;;46.33;19.35;;;-4.30;99.90;;;;;;5093978;28;20024;-50
2024/01/11 10:07:22;;;;;;;46.90;19.77;;;-4.30;99.90;;;;;;5105395;28;20019;-49
2024/01/11 10:09:49;;;;;;;45.53;18.60;;;-4.40;99.90;;;;;;5091802;28;20020;-52
2024/01/11 10:12:15;;;;;;;53.42;20.60;;;-4.40;99.90;;;;;;5090727;28;20098;-49
2024/01/11 10:14:41;;;;;;;45.90;18.98;;;-4.40;99.90;;;;;;5099608;28;20012;-51
2024/01/11 10:17:07;;;;;;;49.22;19.80;;;-4.40;99.90;;;;;;5100796;28;20050;-52
2024/01/11 10:19:33;;;;;;;52.03;20.98;;;-4.30;99.90;;;;;;5096986;28;20119;-49
2024/01/11 10:21:58;;;;;;;53.78;20.45;;;-4.40;99.90;;;;;;5102930;28;20130;-51
2024/01/11 10:24:26;;;;;;;55.65;20.33;;;-4.40;99.90;;;;;;5097067;28;20032;-48
2024/01/11 10:27:03;;;;;;;60.05;23.35;;;-4.40;99.90;;;;;;5099785;28;20016;-49
2024/01/11 10:29:32;;;;;;;49.30;19.80;;;-4.40;99.90;;;;;;5097585;28;20016;-49
2024/01/11 10:31:58;;;;;;;56.55;21.95;;;-4.30;99.90;;;;;;5093262;28;20407;-51
2024/01/11 10:34:24;;;;;;;57.97;23.95;;;-4.30;99.90;;;;;;5091191;28;20016;-49
2024/01/11 10:36:50;;;;;;;52.78;20.13;;;-4.30;99.90;;;;;;5090789;28;20027;-49
2024/01/11 10:39:17;;;;;;;51.72;20.92;;;-4.20;99.90;;;;;;5093831;28;20032;-56
2024/01/11 10:41:47;;;;;;;58.42;21.00;;;-4.10;99.90;;;;;;5096461;28;20054;-50
2024/01/11 10:44:23;;;;;;;51.00;20.77;;;-4.10;99.90;;;;;;5099138;28;20095;-49
2024/01/11 10:46:51;;;;;;;54.65;20.95;;;-4.00;99.90;;;;;;5099515;28;20024;-51
2024/01/11 10:49:21;;;;;;;56.78;20.83;;;-4.00;99.90;;;;;;5105586;28;20571;-49
2024/01/11 10:52:02;;;;;;;57.10;20.15;;;-3.90;99.90;;;;;;5104578;28;20023;-49
2024/01/11 10:54:30;;;;;;;53.38;21.23;;;-4.00;99.90;;;;;;5105428;28;20032;-49
2024/01/11 10:56:59;;;;;;;58.53;20.17;;;-3.90;99.90;;;;;;5096275;28;20024;-49
2024/01/11 10:59:27;;;;;;;59.45;22.95;;;-3.90;99.90;;;;;;5088694;28;20590;-51
2024/01/11 11:02:03;;;;;;;59.28;21.23;;;-3.80;99.90;;;;;;5090770;28;21306;-49
2024/01/11 11:04:30;;;;;;;52.28;20.05;;;-3.80;99.90;;;;;;5089354;28;20020;-50
2024/01/11 11:06:57;;;;;;;50.90;19.75;;;-3.70;99.90;;;;;;5090123;28;20107;-52
2024/01/11 11:09:24;;;;;;;60.88;23.42;;;-3.70;99.90;;;;;;5089711;28;20091;-48
2024/01/11 11:11:51;;;;;;;52.13;20.55;;;-3.70;99.90;;;;;;5089393;28;20227;-47
2024/01/11 11:14:18;;;;;;;60.47;21.27;;;-3.60;99.90;;;;;;5087175;28;20124;-49
2024/01/11 11:16:45;;;;;;;61.38;21.65;;;-3.60;99.90;;;;;;5089755;28;20027;-53
2024/01/11 11:19:12;;;;;;;63.30;21.92;;;-3.50;99.90;;;;;;5089902;28;20046;-50
2024/01/11 11:21:44;;;;;;;60.20;22.55;;;-3.50;99.90;;;;;;5089780;28;20042;-51
2024/01/11 11:24:13;;;;;;;62.20;22.55;;;-3.40;99.90;;;;;;5088664;28;20020;-49
2024/01/11 11:26:39;;;;;;;80.05;21.10;;;-3.40;99.90;;;;;;5090455;28;21006;-48
2024/01/11 11:29:05;;;;;;;60.83;22.23;;;-3.40;99.90;;;;;;5091224;28;20111;-49
2024/01/11 11:31:41;;;;;;;53.38;21.65;;;-3.40;99.90;;;;;;5103805;28;20016;-52
2024/01/11 11:34:07;;;;;;;63.28;21.73;;;-3.60;99.90;;;;;;5099131;28;20032;-54
2024/01/11 11:36:34;;;;;;;61.22;22.55;;;-3.60;99.90;;;;;;5097745;28;20322;-48
2024/01/11 11:39:01;;;;;;;56.67;20.38;;;-3.50;99.90;;;;;;5101468;28;20065;-49
2024/01/11 11:41:27;;;;;;;57.78;20.23;;;-3.50;99.90;;;;;;5105517;28;20047;-52
2024/01/11 11:43:53;;;;;;;98.28;23.88;;;-3.50;99.90;;;;;;5104264;28;20020;-50
2024/01/11 11:46:19;;;;;;;59.50;19.63;;;-3.40;99.90;;;;;;5106479;28;20020;-51
2024/01/11 11:48:52;;;;;;;62.15;20.90;;;-3.50;99.90;;;;;;5097092;28;20023;-52
2024/01/11 11:51:22;;;;;;;54.50;20.15;;;-3.50;99.90;;;;;;5106926;28;20110;-53
2024/01/11 11:53:49;;;;;;;50.17;19.83;;;-3.40;99.90;;;;;;5106518;28;20392;-51
2024/01/11 11:56:17;;;;;;;56.35;20.83;;;-3.40;99.90;;;;;;5106788;28;20559;-51
2024/01/11 11:58:44;;;;;;;48.97;20.95;;;-3.40;99.90;;;;;;5105815;28;20111;-53
2024/01/11 12:01:10;;;;;;;48.67;19.27;;;-3.30;99.90;;;;;;5107345;28;20401;-50
2024/01/11 12:03:38;;;;;;;51.45;20.65;;;-3.30;99.90;;;;;;5106815;28;20023;-53
2024/01/11 12:06:05;;;;;;;53.78;20.52;;;-3.30;99.90;;;;;;5107339;28;20026;-51
2024/01/11 12:08:31;;;;;;;49.03;20.25;;;-3.20;99.90;;;;;;5104800;28;20108;-52
2024/01/11 12:10:57;;;;;;;51.38;18.73;;;-3.20;99.90;;;;;;5107037;28;20553;-52
2024/01/11 12:13:24;;;;;;;51.92;19.85;;;-3.10;99.90;;;;;;5107113;28;20225;-51
2024/01/11 12:15:50;;;;;;;56.22;20.35;;;-3.10;99.90;;;;;;5098108;28;20016;-50
2024/01/11 12:18:16;;;;;;;55.15;20.67;;;-3.10;99.90;;;;;;5107334;28;20034;-51
2024/01/11 12:20:42;;;;;;;52.85;19.25;;;-3.10;99.90;;;;;;5091578;28;20036;-49
2024/01/11 12:23:07;;;;;;;55.20;20.92;;;-3.10;99.90;;;;;;5107444;28;20085;-49